createdAt,value
2023-04-22T00:00:39.846Z,1004.3
2023-04-22T00:01:48.982Z,1004.3
2023-04-22T00:02:58.160Z,1004.3
2023-04-22T00:04:07.310Z,1004.4
2023-04-22T00:05:16.484Z,1004.3
2023-04-22T00:06:25.684Z,1004.4
2023-04-22T00:07:34.830Z,1004.4
2023-04-22T00:08:44.006Z,1004.3
2023-04-22T00:09:53.170Z,1004.3
2023-04-22T00:11:02.361Z,1004.3
2023-04-22T00:12:11.516Z,1004.3
2023-04-22T00:13:20.697Z,1004.3
2023-04-22T00:14:28.894Z,1004.4
2023-04-22T00:15:38.094Z,1004.3
2023-04-22T00:17:56.417Z,1004.3
2023-04-22T00:19:05.574Z,1004.3
2023-04-22T00:20:14.756Z,1004.3
2023-04-22T00:21:22.945Z,1004.3
2023-04-22T00:22:31.127Z,1004.3
2023-04-22T00:23:39.325Z,1004.3
2023-04-22T00:24:47.513Z,1004.3
2023-04-22T00:25:56.689Z,1004.3
2023-04-22T00:27:05.853Z,1004.3
2023-04-22T00:28:15.025Z,1004.3
2023-04-22T00:29:24.186Z,1004.4
2023-04-22T00:30:33.374Z,1004.4
2023-04-22T00:31:42.535Z,1004.4
2023-04-22T00:32:51.711Z,1004.3
2023-04-22T00:34:00.885Z,1004.3
2023-04-22T00:35:10.063Z,1004.3
2023-04-22T00:36:19.237Z,1004.3
2023-04-22T00:37:28.404Z,1004.2
2023-04-22T00:38:37.580Z,1004.3
2023-04-22T00:39:45.763Z,1004.3
2023-04-22T00:40:54.946Z,1004.3
2023-04-22T00:42:04.109Z,1004.3
2023-04-22T00:43:13.269Z,1004.3
2023-04-22T00:44:22.462Z,1004.3
2023-04-22T00:45:31.636Z,1004.3
2023-04-22T00:46:39.824Z,1004.3
2023-04-22T00:47:49.005Z,1004.3
2023-04-22T00:48:58.185Z,1004.3
2023-04-22T00:50:07.340Z,1004.4
2023-04-22T00:51:16.521Z,1004.3
2023-04-22T00:52:25.682Z,1004.3
2023-04-22T00:53:34.857Z,1004.3
2023-04-22T00:54:44.027Z,1004.2
2023-04-22T00:55:53.194Z,1004.2
2023-04-22T00:57:02.371Z,1004.2
2023-04-22T00:58:11.546Z,1004.2
2023-04-22T00:59:20.715Z,1004.2
2023-04-22T01:00:29.899Z,1004.2
2023-04-22T01:01:38.086Z,1004.1
2023-04-22T01:02:47.245Z,1004.2
2023-04-22T01:03:56.423Z,1004.2
2023-04-22T01:05:05.593Z,1004.2
2023-04-22T01:06:14.777Z,1004.2
2023-04-22T01:07:23.946Z,1004.2
2023-04-22T01:08:32.142Z,1004.2
2023-04-22T01:09:40.317Z,1004.2
2023-04-22T01:10:49.488Z,1004.2
2023-04-22T01:11:58.655Z,1004.3
2023-04-22T01:13:06.875Z,1004.2
2023-04-22T01:14:15.063Z,1004.2
2023-04-22T01:15:24.217Z,1004.1
2023-04-22T01:16:33.391Z,1004.1
2023-04-22T01:17:42.572Z,1004.1
2023-04-22T01:18:51.747Z,1004.1
2023-04-22T01:20:00.911Z,1004.1
2023-04-22T01:21:10.093Z,1004.1
2023-04-22T01:22:19.254Z,1004.1
2023-04-22T01:23:28.449Z,1004.1
2023-04-22T01:24:37.606Z,1004.1
2023-04-22T01:25:46.779Z,1004.1
2023-04-22T01:26:55.942Z,1004.1
2023-04-22T01:28:05.130Z,1004.1
2023-04-22T01:29:13.316Z,1004.1
2023-04-22T01:30:22.484Z,1004
2023-04-22T01:31:31.647Z,1004.1
2023-04-22T01:32:40.834Z,1004
2023-04-22T01:33:50.003Z,1004
2023-04-22T01:34:59.182Z,1004
2023-04-22T01:36:08.350Z,1004
2023-04-22T01:37:16.578Z,1004
2023-04-22T01:38:25.706Z,1004
2023-04-22T01:39:33.901Z,1004
2023-04-22T01:40:42.096Z,1004
2023-04-22T01:41:51.265Z,1004
2023-04-22T01:43:00.436Z,1004
2023-04-22T01:44:09.609Z,1004.1
2023-04-22T01:45:18.806Z,1004
2023-04-22T01:46:27.957Z,1004
2023-04-22T01:47:37.131Z,1004
2023-04-22T01:48:46.300Z,1004
2023-04-22T01:49:55.465Z,1004
2023-04-22T01:51:04.672Z,1004
2023-04-22T01:52:13.818Z,1004
2023-04-22T01:53:22.984Z,1004
2023-04-22T01:54:32.166Z,1004
2023-04-22T01:55:40.355Z,1004.1
2023-04-22T01:56:49.524Z,1004
2023-04-22T01:57:58.697Z,1004
2023-04-22T01:59:07.873Z,1004.1
2023-04-22T02:00:17.027Z,1004.1
2023-04-22T02:01:26.255Z,1004.1
2023-04-22T02:02:35.397Z,1004.1
2023-04-22T02:03:43.580Z,1004.1
2023-04-22T02:04:51.771Z,1004
2023-04-22T02:06:00.949Z,1004.1
2023-04-22T02:07:10.118Z,1004.1
2023-04-22T02:08:19.289Z,1004.1
2023-04-22T02:09:28.497Z,1004
2023-04-22T02:10:36.664Z,1004.1
2023-04-22T02:11:44.845Z,1004.1
2023-04-22T02:12:54.020Z,1004
2023-04-22T02:14:03.188Z,1004.1
2023-04-22T02:15:12.365Z,1004.1
2023-04-22T02:16:21.532Z,1004.1
2023-04-22T02:17:30.706Z,1004.1
2023-04-22T02:18:39.862Z,1004.1
2023-04-22T02:19:49.044Z,1004
2023-04-22T02:20:58.216Z,1004
2023-04-22T02:22:07.394Z,1004
2023-04-22T02:23:16.563Z,1004
2023-04-22T02:24:25.746Z,1004
2023-04-22T02:25:34.902Z,1004
2023-04-22T02:26:43.108Z,1004.1
2023-04-22T02:27:52.274Z,1004
2023-04-22T02:29:01.447Z,1004
2023-04-22T02:30:10.631Z,1004
2023-04-22T02:31:19.786Z,1004.1
2023-04-22T02:32:28.960Z,1004.1
2023-04-22T02:33:38.155Z,1004.1
2023-04-22T02:34:46.330Z,1004
2023-04-22T02:35:54.510Z,1004.1
2023-04-22T02:37:02.708Z,1004.1
2023-04-22T02:38:10.907Z,1004.1
2023-04-22T02:39:20.068Z,1004.1
2023-04-22T02:40:29.234Z,1004
2023-04-22T02:41:38.411Z,1004.1
2023-04-22T02:42:47.577Z,1004
2023-04-22T02:43:56.765Z,1004.1
2023-04-22T02:45:06.017Z,1004
2023-04-22T02:46:15.112Z,1004.1
2023-04-22T02:47:24.318Z,1004
2023-04-22T02:48:33.453Z,1004
2023-04-22T02:49:42.612Z,1003.9
2023-04-22T02:50:51.794Z,1004
2023-04-22T02:52:00.974Z,1004
2023-04-22T02:53:09.175Z,1004
2023-04-22T02:55:27.500Z,1004
2023-04-22T02:56:36.663Z,1004
2023-04-22T02:57:45.837Z,1004
2023-04-22T02:58:55.010Z,1004
2023-04-22T03:00:04.181Z,1004
2023-04-22T03:01:13.363Z,1004
2023-04-22T03:02:21.545Z,1004
2023-04-22T03:03:29.738Z,1003.9
2023-04-22T03:04:38.920Z,1003.9
2023-04-22T03:05:48.085Z,1004
2023-04-22T03:06:56.294Z,1003.9
2023-04-22T03:08:04.469Z,1004
2023-04-22T03:09:13.634Z,1004
2023-04-22T03:10:22.820Z,1004
2023-04-22T03:11:32.038Z,1004
2023-04-22T03:12:41.175Z,1004
2023-04-22T03:13:50.377Z,1003.9
2023-04-22T03:14:59.525Z,1003.9
2023-04-22T03:16:08.677Z,1003.9
2023-04-22T03:17:17.850Z,1003.9
2023-04-22T03:18:27.031Z,1003.9
2023-04-22T03:19:36.185Z,1003.8
2023-04-22T03:20:45.364Z,1003.9
2023-04-22T03:23:03.714Z,1004
2023-04-22T03:24:11.976Z,1004
2023-04-22T03:25:21.086Z,1003.9
2023-04-22T03:26:30.261Z,1003.9
2023-04-22T03:27:39.438Z,1003.9
2023-04-22T03:28:48.592Z,1003.9
2023-04-22T03:29:57.767Z,1003.9
2023-04-22T03:31:06.935Z,1003.9
2023-04-22T03:32:15.129Z,1003.9
2023-04-22T03:33:23.318Z,1003.9
2023-04-22T03:34:31.519Z,1003.9
2023-04-22T03:35:39.716Z,1003.9
2023-04-22T03:36:48.870Z,1003.9
2023-04-22T03:37:58.050Z,1003.8
2023-04-22T03:39:07.224Z,1003.8
2023-04-22T03:41:25.567Z,1003.8
2023-04-22T03:42:34.748Z,1003.8
2023-04-22T03:43:43.923Z,1003.7
2023-04-22T03:44:53.089Z,1003.7
2023-04-22T03:47:11.433Z,1003.8
2023-04-22T03:48:20.599Z,1003.7
2023-04-22T03:49:28.788Z,1003.7
2023-04-22T03:51:46.155Z,1003.7
2023-04-22T03:52:55.324Z,1003.7
2023-04-22T03:54:04.505Z,1003.7
2023-04-22T03:55:13.677Z,1003.7
2023-04-22T03:56:22.838Z,1003.7
2023-04-22T03:57:32.015Z,1003.7
2023-04-22T03:58:41.192Z,1003.6
2023-04-22T03:59:50.367Z,1003.7
2023-04-22T04:00:59.531Z,1003.7
2023-04-22T04:02:08.780Z,1003.7
2023-04-22T04:03:16.906Z,1003.6
2023-04-22T04:04:25.104Z,1003.6
2023-04-22T04:05:34.268Z,1003.6
2023-04-22T04:06:43.433Z,1003.5
2023-04-22T04:07:52.613Z,1003.6
2023-04-22T04:09:01.775Z,1003.6
2023-04-22T04:10:10.952Z,1003.6
2023-04-22T04:11:20.134Z,1003.6
2023-04-22T04:12:29.299Z,1003.5
2023-04-22T04:13:38.472Z,1003.5
2023-04-22T04:14:47.639Z,1003.5
2023-04-22T04:15:56.816Z,1003.5
2023-04-22T04:17:05.986Z,1003.5
2023-04-22T04:18:15.154Z,1003.5
2023-04-22T04:19:23.389Z,1003.5
2023-04-22T04:20:32.521Z,1003.5
2023-04-22T04:21:41.694Z,1003.5
2023-04-22T04:22:50.859Z,1003.5
2023-04-22T04:24:00.039Z,1003.5
2023-04-22T04:25:09.218Z,1003.5
2023-04-22T04:26:18.382Z,1003.5
2023-04-22T04:28:35.755Z,1003.5
2023-04-22T04:30:53.115Z,1003.5
2023-04-22T04:32:01.307Z,1003.5
2023-04-22T04:33:09.500Z,1003.5
2023-04-22T04:34:18.659Z,1003.5
2023-04-22T04:35:26.868Z,1003.5
2023-04-22T04:36:35.040Z,1003.5
2023-04-22T04:37:43.257Z,1003.4
2023-04-22T04:38:52.423Z,1003.5
2023-04-22T04:40:01.580Z,1003.5
2023-04-22T04:41:10.765Z,1003.5
2023-04-22T04:42:19.934Z,1003.4
2023-04-22T04:43:29.110Z,1003.5
2023-04-22T04:44:38.286Z,1003.4
2023-04-22T04:45:47.440Z,1003.5
2023-04-22T04:46:56.628Z,1003.4
2023-04-22T04:48:05.821Z,1003.5
2023-04-22T04:49:14.970Z,1003.5
2023-04-22T04:50:24.280Z,1003.5
2023-04-22T04:51:33.367Z,1003.5
2023-04-22T04:52:41.496Z,1003.5
2023-04-22T04:53:50.662Z,1003.5
2023-04-22T04:54:59.848Z,1003.5
2023-04-22T04:56:09.030Z,1003.4
2023-04-22T04:57:18.190Z,1003.4
2023-04-22T04:58:27.367Z,1003.4
2023-04-22T04:59:35.681Z,1003.4
2023-04-22T05:00:43.743Z,1003.4
2023-04-22T05:01:51.960Z,1003.4
2023-04-22T05:03:00.138Z,1003.4
2023-04-22T05:05:18.486Z,1003.5
2023-04-22T05:06:27.666Z,1003.4
2023-04-22T05:07:36.823Z,1003.4
2023-04-22T05:08:45.992Z,1003.4
2023-04-22T05:09:55.167Z,1003.4
2023-04-22T05:11:04.382Z,1003.4
2023-04-22T05:12:13.522Z,1003.4
2023-04-22T05:13:22.689Z,1003.4
2023-04-22T05:14:31.908Z,1003.4
2023-04-22T05:15:41.045Z,1003.4
2023-04-22T05:16:50.241Z,1003.4
2023-04-22T05:17:58.462Z,1003.4
2023-04-22T05:19:07.572Z,1003.4
2023-04-22T05:20:16.828Z,1003.4
2023-04-22T05:21:25.916Z,1003.4
2023-04-22T05:22:35.080Z,1003.4
2023-04-22T05:23:44.255Z,1003.4
2023-04-22T05:24:53.420Z,1003.4
2023-04-22T05:26:02.608Z,1003.4
2023-04-22T05:27:11.793Z,1003.4
2023-04-22T05:28:20.933Z,1003.4
2023-04-22T05:29:30.232Z,1003.4
2023-04-22T05:30:39.334Z,1003.4
2023-04-22T05:31:48.466Z,1003.4
2023-04-22T05:32:56.653Z,1003.4
2023-04-22T05:34:05.824Z,1003.3
2023-04-22T05:35:14.998Z,1003.3
2023-04-22T05:36:24.177Z,1003.3
2023-04-22T05:37:33.336Z,1003.4
2023-04-22T05:38:42.519Z,1003.4
2023-04-22T05:39:51.732Z,1003.4
2023-04-22T05:41:00.880Z,1003.4
2023-04-22T05:42:10.099Z,1003.4
2023-04-22T05:43:19.219Z,1003.4
2023-04-22T05:44:28.388Z,1003.4
2023-04-22T05:45:37.533Z,1003.4
2023-04-22T05:46:46.720Z,1003.4
2023-04-22T05:47:54.921Z,1003.4
2023-04-22T05:49:04.092Z,1003.5
2023-04-22T05:50:13.327Z,1003.5
2023-04-22T05:51:22.460Z,1003.4
2023-04-22T05:52:31.620Z,1003.4
2023-04-22T05:53:40.766Z,1003.4
2023-04-22T05:54:49.949Z,1003.4
2023-04-22T05:57:08.286Z,1003.4
2023-04-22T05:58:16.482Z,1003.3
2023-04-22T05:59:24.672Z,1003.3
2023-04-22T06:00:33.941Z,1003.3
2023-04-22T06:01:43.026Z,1003.3
2023-04-22T06:02:51.215Z,1003.3
2023-04-22T06:03:59.403Z,1003.3
2023-04-22T06:05:08.584Z,1003.2
2023-04-22T06:06:17.745Z,1003.3
2023-04-22T06:07:26.919Z,1003.3
2023-04-22T06:09:45.406Z,1003.3
2023-04-22T06:10:54.604Z,1003.2
2023-04-22T06:12:03.683Z,1003.2
2023-04-22T06:13:12.955Z,1003.2
2023-04-22T06:14:22.175Z,1003.2
2023-04-22T06:15:31.269Z,1003.2
2023-04-22T06:16:40.438Z,1003.2
2023-04-22T06:17:49.494Z,1003.2
2023-04-22T06:18:57.658Z,1003.2
2023-04-22T06:20:07.072Z,1003.2
2023-04-22T06:21:16.158Z,1003.2
2023-04-22T06:22:25.342Z,1003.2
2023-04-22T06:23:34.464Z,1003.2
2023-04-22T06:24:43.650Z,1003.2
2023-04-22T06:25:52.883Z,1003.2
2023-04-22T06:27:02.056Z,1003.1
2023-04-22T06:28:10.069Z,1003.1
2023-04-22T06:29:18.345Z,1003.2
2023-04-22T06:31:36.807Z,1003.2
2023-04-22T06:32:45.937Z,1003.3
2023-04-22T06:33:54.110Z,1003.3
2023-04-22T06:35:02.313Z,1003.3
2023-04-22T06:36:11.489Z,1003.2
2023-04-22T06:37:20.644Z,1003.3
2023-04-22T06:38:29.672Z,1003.3
2023-04-22T06:39:38.977Z,1003.3
2023-04-22T06:40:48.078Z,1003.3
2023-04-22T06:41:57.396Z,1003.3
2023-04-22T06:43:06.576Z,1003.3
2023-04-22T06:44:15.521Z,1003.4
2023-04-22T06:45:24.871Z,1003.3
2023-04-22T06:46:34.053Z,1003.3
2023-04-22T06:47:43.037Z,1003.3
2023-04-22T06:48:52.330Z,1003.4
2023-04-22T06:50:00.407Z,1003.3
2023-04-22T06:51:09.681Z,1003.4
2023-04-22T06:52:18.740Z,1003.4
2023-04-22T06:53:28.102Z,1003.4
2023-04-22T06:54:37.315Z,1003.4
2023-04-22T06:55:46.264Z,1003.4
2023-04-22T06:56:55.434Z,1003.3
2023-04-22T06:58:04.635Z,1003.4
2023-04-22T06:59:12.790Z,1003.3
2023-04-22T07:00:20.984Z,1003.2
2023-04-22T07:01:30.300Z,1003.3
2023-04-22T07:02:38.489Z,1003.2
2023-04-22T07:03:46.677Z,1003.2
2023-04-22T07:04:55.719Z,1003.1
2023-04-22T07:06:04.945Z,1003.2
2023-04-22T07:07:14.071Z,1003.2
2023-04-22T07:08:23.293Z,1003.2
2023-04-22T07:09:32.481Z,1003.1
2023-04-22T07:10:41.658Z,1003.1
2023-04-22T07:11:50.884Z,1003.1
2023-04-22T07:12:59.911Z,1003.1
2023-04-22T07:14:09.273Z,1003.1
2023-04-22T07:15:18.415Z,1003.2
2023-04-22T07:16:27.575Z,1003.2
2023-04-22T07:17:36.640Z,1003.1
2023-04-22T07:18:44.802Z,1003.1
2023-04-22T07:19:54.161Z,1003.1
2023-04-22T07:21:03.243Z,1003.1
2023-04-22T07:22:12.370Z,1003.1
2023-04-22T07:23:21.595Z,1003.1
2023-04-22T07:24:30.717Z,1003.1
2023-04-22T07:25:39.922Z,1003.1
2023-04-22T07:26:48.154Z,1003.1
2023-04-22T07:27:56.255Z,1003
2023-04-22T07:29:05.409Z,1003
2023-04-22T07:30:14.679Z,1003
2023-04-22T07:31:22.767Z,1003
2023-04-22T07:32:30.995Z,1003
2023-04-22T07:33:40.248Z,1003
2023-04-22T07:34:49.284Z,1003
2023-04-22T07:35:58.489Z,1002.9
2023-04-22T07:37:07.659Z,1003
2023-04-22T07:38:16.813Z,1002.9
2023-04-22T07:39:25.982Z,1003
2023-04-22T07:40:35.147Z,1003
2023-04-22T07:41:44.306Z,1003
2023-04-22T07:42:53.565Z,1003
2023-04-22T07:44:02.657Z,1003
2023-04-22T07:45:12.000Z,1003
2023-04-22T07:46:21.007Z,1003.1
2023-04-22T07:47:29.373Z,1003
2023-04-22T07:48:38.412Z,1003
2023-04-22T07:49:47.537Z,1003
2023-04-22T07:50:56.801Z,1003.1
2023-04-22T07:52:05.942Z,1003
2023-04-22T07:53:15.058Z,1003.1
2023-04-22T07:54:24.343Z,1003.1
2023-04-22T07:55:32.529Z,1003
2023-04-22T07:56:40.618Z,1003
2023-04-22T07:57:49.774Z,1003
2023-04-22T07:58:57.990Z,1003
2023-04-22T08:00:06.160Z,1003
2023-04-22T08:01:15.357Z,1003
2023-04-22T08:02:24.604Z,1003
2023-04-22T08:03:33.704Z,1003
2023-04-22T08:04:42.860Z,1003
2023-04-22T08:05:52.063Z,1003
2023-04-22T08:07:01.322Z,1002.9
2023-04-22T08:08:10.405Z,1003
2023-04-22T08:09:19.612Z,1002.9
2023-04-22T08:10:28.953Z,1002.9
2023-04-22T08:11:37.902Z,1002.9
2023-04-22T08:12:47.067Z,1002.8
2023-04-22T08:13:56.261Z,1002.8
2023-04-22T08:15:04.422Z,1002.9
2023-04-22T08:16:13.804Z,1002.9
2023-04-22T08:17:22.796Z,1002.8
2023-04-22T08:18:32.015Z,1002.9
2023-04-22T08:19:41.164Z,1002.9
2023-04-22T08:20:50.281Z,1002.9
2023-04-22T08:21:59.452Z,1002.9
2023-04-22T08:23:07.754Z,1002.9
2023-04-22T08:24:15.942Z,1002.9
2023-04-22T08:25:24.054Z,1002.9
2023-04-22T08:26:32.329Z,1002.8
2023-04-22T08:27:41.437Z,1002.8
2023-04-22T08:28:49.626Z,1002.8
2023-04-22T08:29:58.791Z,1002.8
2023-04-22T08:31:07.930Z,1002.7
2023-04-22T08:32:17.125Z,1002.7
2023-04-22T08:33:26.301Z,1002.7
2023-04-22T08:34:35.515Z,1002.7
2023-04-22T08:35:44.610Z,1002.6
2023-04-22T08:36:53.783Z,1002.6
2023-04-22T08:38:02.974Z,1002.6
2023-04-22T08:39:12.203Z,1002.6
2023-04-22T08:40:21.320Z,1002.6
2023-04-22T08:41:30.547Z,1002.6
2023-04-22T08:42:39.732Z,1002.6
2023-04-22T08:43:48.864Z,1002.5
2023-04-22T08:44:57.073Z,1002.6
2023-04-22T08:46:06.344Z,1002.5
2023-04-22T08:47:15.393Z,1002.5
2023-04-22T08:48:24.533Z,1002.4
2023-04-22T08:49:32.858Z,1002.5
2023-04-22T08:50:41.037Z,1002.5
2023-04-22T08:51:50.128Z,1002.5
2023-04-22T08:52:59.284Z,1002.4
2023-04-22T08:54:07.545Z,1002.4
2023-04-22T08:55:15.624Z,1002.3
2023-04-22T08:56:24.811Z,1002.4
2023-04-22T08:57:34.037Z,1002.4
2023-04-22T08:58:43.208Z,1002.3
2023-04-22T08:59:52.350Z,1002.4
2023-04-22T09:01:01.607Z,1002.3
2023-04-22T09:02:10.681Z,1002.3
2023-04-22T09:03:19.865Z,1002.3
2023-04-22T09:04:29.024Z,1002.4
2023-04-22T09:05:38.200Z,1002.2
2023-04-22T09:06:47.439Z,1002.3
2023-04-22T09:07:56.555Z,1002.3
2023-04-22T09:09:05.706Z,1002.2
2023-04-22T09:10:13.887Z,1002.2
2023-04-22T09:11:23.069Z,1002.3
2023-04-22T09:12:32.399Z,1002.3
2023-04-22T09:13:41.498Z,1002.2
2023-04-22T09:14:50.569Z,1002.3
2023-04-22T09:15:59.756Z,1002.3
2023-04-22T09:17:08.951Z,1002.3
2023-04-22T09:18:18.242Z,1002.3
2023-04-22T09:19:26.403Z,1002.2
2023-04-22T09:20:34.536Z,1002.3
2023-04-22T09:21:43.636Z,1002.2
2023-04-22T09:22:52.914Z,1002.2
2023-04-22T09:24:02.140Z,1002.2
2023-04-22T09:25:10.252Z,1002.2
2023-04-22T09:26:18.453Z,1002.2
2023-04-22T09:27:27.647Z,1002.1
2023-04-22T09:28:36.806Z,1002.2
2023-04-22T09:29:45.978Z,1002.2
2023-04-22T09:30:55.220Z,1002.2
2023-04-22T09:32:04.234Z,1002.2
2023-04-22T09:33:13.475Z,1002.2
2023-04-22T09:34:22.768Z,1002.2
2023-04-22T09:35:31.858Z,1002.1
2023-04-22T09:36:40.940Z,1002.1
2023-04-22T09:37:50.223Z,1002.1
2023-04-22T09:38:59.372Z,1002.1
2023-04-22T09:40:08.507Z,1002
2023-04-22T09:41:16.773Z,1002
2023-04-22T09:42:25.792Z,1001.9
2023-04-22T09:43:35.082Z,1001.9
2023-04-22T09:44:44.158Z,1001.9
2023-04-22T09:45:53.463Z,1001.9
2023-04-22T09:47:02.522Z,1001.9
2023-04-22T09:48:11.661Z,1001.9
2023-04-22T09:49:19.891Z,1001.9
2023-04-22T09:50:29.027Z,1001.9
2023-04-22T09:51:37.248Z,1001.9
2023-04-22T09:52:46.393Z,1001.9
2023-04-22T09:53:55.566Z,1001.8
2023-04-22T09:55:04.741Z,1001.8
2023-04-22T09:56:13.007Z,1001.9
2023-04-22T09:57:21.128Z,1001.9
2023-04-22T09:58:30.378Z,1001.9
2023-04-22T09:59:39.502Z,1001.9
2023-04-22T10:01:57.899Z,1001.8
2023-04-22T10:03:07.115Z,1001.7
2023-04-22T10:04:16.253Z,1001.7
2023-04-22T10:05:25.463Z,1001.7
2023-04-22T10:06:34.589Z,1001.7
2023-04-22T10:07:43.669Z,1001.7
2023-04-22T10:08:52.907Z,1001.6
2023-04-22T10:10:02.169Z,1001.6
2023-04-22T10:11:11.329Z,1001.6
2023-04-22T10:12:19.437Z,1001.6
2023-04-22T10:13:28.748Z,1001.5
2023-04-22T10:14:37.776Z,1001.6
2023-04-22T10:15:47.049Z,1001.6
2023-04-22T10:16:56.228Z,1001.5
2023-04-22T10:18:05.316Z,1001.5
2023-04-22T10:19:14.482Z,1001.4
2023-04-22T10:20:23.637Z,1001.5
2023-04-22T10:21:32.816Z,1001.5
2023-04-22T10:22:42.001Z,1001.5
2023-04-22T10:23:51.216Z,1001.4
2023-04-22T10:25:00.329Z,1001.4
2023-04-22T10:26:08.538Z,1001.4
2023-04-22T10:27:16.703Z,1001.4
2023-04-22T10:28:25.893Z,1001.4
2023-04-22T10:29:34.063Z,1001.4
2023-04-22T10:30:43.239Z,1001.4
2023-04-22T10:31:51.436Z,1001.3
2023-04-22T10:33:00.606Z,1001.3
2023-04-22T10:34:09.770Z,1001.3
2023-04-22T10:35:18.986Z,1001.3
2023-04-22T10:36:28.130Z,1001.3
2023-04-22T10:37:37.389Z,1001.3
2023-04-22T10:38:46.461Z,1001.3
2023-04-22T10:39:55.732Z,1001.3
2023-04-22T10:41:05.006Z,1001.3
2023-04-22T10:42:14.030Z,1001.3
2023-04-22T10:43:23.330Z,1001.2
2023-04-22T10:44:32.352Z,1001.3
2023-04-22T10:45:41.502Z,1001.3
2023-04-22T10:46:49.704Z,1001.3
2023-04-22T10:47:58.882Z,1001.3
2023-04-22T10:49:08.027Z,1001.2
2023-04-22T10:50:17.214Z,1001.2
2023-04-22T10:51:26.369Z,1001.2
2023-04-22T10:52:35.541Z,1001.2
2023-04-22T10:53:44.717Z,1001.2
2023-04-22T10:54:53.893Z,1001.2
2023-04-22T10:56:03.096Z,1001.2
2023-04-22T10:57:11.250Z,1001.2
2023-04-22T10:58:19.497Z,1001.2
2023-04-22T10:59:28.706Z,1001.2
2023-04-22T11:00:37.792Z,1001.2
2023-04-22T11:01:47.053Z,1001.2
2023-04-22T11:02:55.161Z,1001.2
2023-04-22T11:04:03.351Z,1001.1
2023-04-22T11:05:12.594Z,1001.1
2023-04-22T11:06:21.694Z,1001.1
2023-04-22T11:07:30.968Z,1001.1
2023-04-22T11:08:40.102Z,1001.1
2023-04-22T11:09:49.290Z,1001.1
2023-04-22T11:10:58.473Z,1001.1
2023-04-22T11:12:07.561Z,1001.1
2023-04-22T11:13:16.790Z,1001
2023-04-22T11:14:25.960Z,1001
2023-04-22T11:15:35.124Z,1000.9
2023-04-22T11:16:44.381Z,1000.9
2023-04-22T11:17:53.548Z,1000.9
2023-04-22T11:19:01.719Z,1000.9
2023-04-22T11:20:10.817Z,1000.9
2023-04-22T11:21:19.964Z,1000.8
2023-04-22T11:22:29.119Z,1000.9
2023-04-22T11:23:38.366Z,1000.8
2023-04-22T11:24:47.476Z,1000.9
2023-04-22T11:25:56.629Z,1000.8
2023-04-22T11:27:04.867Z,1000.7
2023-04-22T11:28:13.034Z,1000.8
2023-04-22T11:29:21.280Z,1000.8
2023-04-22T11:30:29.469Z,1000.8
2023-04-22T11:31:38.592Z,1000.8
2023-04-22T11:32:47.749Z,1000.8
2023-04-22T11:33:56.918Z,1000.7
2023-04-22T11:35:06.098Z,1000.8
2023-04-22T11:37:24.460Z,1000.8
2023-04-22T11:38:33.715Z,1000.8
2023-04-22T11:40:51.953Z,1000.8
2023-04-22T11:42:01.188Z,1000.8
2023-04-22T11:43:10.406Z,1000.9
2023-04-22T11:44:18.615Z,1000.8
2023-04-22T11:45:26.834Z,1000.7
2023-04-22T11:46:35.991Z,1000.7
2023-04-22T11:47:45.115Z,1000.7
2023-04-22T11:48:54.329Z,1000.7
2023-04-22T11:50:03.467Z,1000.7
2023-04-22T11:51:12.681Z,1000.7
2023-04-22T11:52:21.847Z,1000.7
2023-04-22T11:53:31.038Z,1000.7
2023-04-22T11:54:40.190Z,1000.7
2023-04-22T11:55:49.223Z,1000.7
2023-04-22T11:56:57.419Z,1000.7
2023-04-22T11:58:05.616Z,1000.7
2023-04-22T11:59:14.872Z,1000.7
2023-04-22T12:00:23.969Z,1000.7
2023-04-22T12:01:33.248Z,1000.7
2023-04-22T12:02:42.360Z,1000.7
2023-04-22T12:03:51.538Z,1000.7
2023-04-22T12:05:00.712Z,1000.6
2023-04-22T12:06:09.928Z,1000.5
2023-04-22T12:07:18.997Z,1000.6
2023-04-22T12:08:28.240Z,1000.5
2023-04-22T12:09:37.338Z,1000.6
2023-04-22T12:10:46.567Z,1000.5
2023-04-22T12:11:55.679Z,1000.5
2023-04-22T12:13:03.850Z,1000.6
2023-04-22T12:14:13.108Z,1000.6
2023-04-22T12:15:22.213Z,1000.5
2023-04-22T12:16:31.502Z,1000.5
2023-04-22T12:17:40.545Z,1000.5
2023-04-22T12:18:49.808Z,1000.6
2023-04-22T12:19:58.004Z,1000.5
2023-04-22T12:21:06.166Z,1000.6
2023-04-22T12:22:14.471Z,1000.6
2023-04-22T12:23:23.483Z,1000.6
2023-04-22T12:24:32.668Z,1000.6
2023-04-22T12:25:40.829Z,1000.6
2023-04-22T12:26:49.069Z,1000.6
2023-04-22T12:27:58.202Z,1000.6
2023-04-22T12:29:07.363Z,1000.6
2023-04-22T12:30:16.524Z,1000.6
2023-04-22T12:31:25.727Z,1000.5
2023-04-22T12:32:34.971Z,1000.5
2023-04-22T12:33:44.159Z,1000.5
2023-04-22T12:34:53.240Z,1000.5
2023-04-22T12:36:02.553Z,1000.5
2023-04-22T12:37:11.605Z,1000.5
2023-04-22T12:38:20.739Z,1000.5
2023-04-22T12:39:30.029Z,1000.5
2023-04-22T12:40:39.116Z,1000.4
2023-04-22T12:41:47.382Z,1000.5
2023-04-22T12:42:56.518Z,1000.5
2023-04-22T12:44:05.613Z,1000.5
2023-04-22T12:45:14.789Z,1000.5
2023-04-22T12:46:23.993Z,1000.5
2023-04-22T12:47:33.215Z,1000.5
2023-04-22T12:48:42.372Z,1000.5
2023-04-22T12:49:50.616Z,1000.5
2023-04-22T12:50:58.923Z,1000.5
2023-04-22T12:52:07.970Z,1000.5
2023-04-22T12:53:16.070Z,1000.5
2023-04-22T12:54:25.319Z,1000.5
2023-04-22T12:55:34.453Z,1000.5
2023-04-22T12:56:42.754Z,1000.5
2023-04-22T12:57:51.856Z,1000.5
2023-04-22T12:59:00.938Z,1000.5
2023-04-22T13:00:10.201Z,1000.5
2023-04-22T13:01:19.406Z,1000.5
2023-04-22T13:02:28.464Z,1000.5
2023-04-22T13:03:37.657Z,1000.5
2023-04-22T13:04:46.791Z,1000.4
2023-04-22T13:05:56.000Z,1000.5
2023-04-22T13:07:05.152Z,1000.4
2023-04-22T13:08:14.402Z,1000.4
2023-04-22T13:09:23.681Z,1000.4
2023-04-22T13:10:32.801Z,1000.5
2023-04-22T13:11:40.971Z,1000.5
2023-04-22T13:12:50.082Z,1000.5
2023-04-22T13:13:59.236Z,1000.5
2023-04-22T13:15:08.436Z,1000.4
2023-04-22T13:16:17.582Z,1000.5
2023-04-22T13:17:26.777Z,1000.4
2023-04-22T13:18:35.942Z,1000.4
2023-04-22T13:19:45.203Z,1000.5
2023-04-22T13:20:54.289Z,1000.4
2023-04-22T13:22:03.486Z,1000.5
2023-04-22T13:23:12.666Z,1000.4
2023-04-22T13:24:21.780Z,1000.5
2023-04-22T13:25:30.975Z,1000.4
2023-04-22T13:26:39.241Z,1000.5
2023-04-22T13:27:48.393Z,1000.5
2023-04-22T13:28:57.507Z,1000.4
2023-04-22T13:30:05.684Z,1000.5
2023-04-22T13:31:13.906Z,1000.5
2023-04-22T13:32:23.055Z,1000.5
2023-04-22T13:33:31.299Z,1000.4
2023-04-22T13:34:39.497Z,1000.5
2023-04-22T13:35:48.615Z,1000.4
2023-04-22T13:38:06.948Z,1000.3
2023-04-22T13:39:16.160Z,1000.4
2023-04-22T13:40:25.289Z,1000.4
2023-04-22T13:41:34.466Z,1000.4
2023-04-22T13:42:43.641Z,1000.3
2023-04-22T13:43:52.815Z,1000.4
2023-04-22T13:45:01.993Z,1000.3
2023-04-22T13:46:11.219Z,1000.4
2023-04-22T13:47:20.380Z,1000.4
2023-04-22T13:48:29.566Z,1000.4
2023-04-22T13:49:37.690Z,1000.3
2023-04-22T13:50:46.936Z,1000.4
2023-04-22T13:51:56.048Z,1000.3
2023-04-22T13:53:05.234Z,1000.4
2023-04-22T13:54:14.455Z,1000.3
2023-04-22T13:55:23.575Z,1000.3
2023-04-22T13:56:32.806Z,1000.4
2023-04-22T13:57:41.995Z,1000.3
2023-04-22T13:58:50.240Z,1000.4
2023-04-22T13:59:58.393Z,1000.4
2023-04-22T14:01:06.470Z,1000.3
2023-04-22T14:02:14.728Z,1000.3
2023-04-22T14:03:23.829Z,1000.3
2023-04-22T14:04:33.016Z,1000.3
2023-04-22T14:05:42.265Z,1000.3
2023-04-22T14:06:51.346Z,1000.3
2023-04-22T14:08:00.561Z,1000.3
2023-04-22T14:09:09.792Z,1000.3
2023-04-22T14:10:18.864Z,1000.4
2023-04-22T14:11:28.117Z,1000.4
2023-04-22T14:12:37.349Z,1000.3
2023-04-22T14:13:46.465Z,1000.3
2023-04-22T14:14:55.723Z,1000.3
2023-04-22T14:16:04.826Z,1000.2
2023-04-22T14:17:12.907Z,1000.2
2023-04-22T14:18:22.080Z,1000.2
2023-04-22T14:19:31.347Z,1000.1
2023-04-22T14:20:40.582Z,1000.1
2023-04-22T14:21:49.638Z,1000
2023-04-22T14:22:58.767Z,1000.2
2023-04-22T14:24:07.985Z,1000
2023-04-22T14:25:16.131Z,1000
2023-04-22T14:26:24.330Z,1000
2023-04-22T14:27:32.523Z,1000
2023-04-22T14:28:40.740Z,999.9
2023-04-22T14:29:49.867Z,1000
2023-04-22T14:30:59.080Z,1000
2023-04-22T14:33:17.463Z,1000
2023-04-22T14:34:26.619Z,1000.1
2023-04-22T14:35:35.768Z,1000
2023-04-22T14:36:44.987Z,1000
2023-04-22T14:37:54.085Z,1000.1
2023-04-22T14:39:03.307Z,1000
2023-04-22T14:40:12.449Z,1000
2023-04-22T14:41:21.606Z,1000.1
2023-04-22T14:42:30.780Z,1000.2
2023-04-22T14:43:38.974Z,1000.1
2023-04-22T14:44:48.138Z,1000.1
2023-04-22T14:45:57.305Z,1000.1
2023-04-22T14:47:06.494Z,1000.1